sensor_id;sensor_type;location;lat;lon;timestamp;pressure;altitude;pressure_sealevel;temperature;humidity
54439;BME280;40347;53.848;27.498;2022-08-19T00:02:57;1014.7;;;21.9;57.8
54439;BME280;40347;53.848;27.498;2022-08-19T00:07:49;1014.7;;;21.8;58.1
54439;BME280;40347;53.848;27.498;2022-08-19T00:12:56;1014.7;;;21.8;58
54439;BME280;40347;53.848;27.498;2022-08-19T00:17:55;1014.6;;;21.8;58.2
54439;BME280;40347;53.848;27.498;2022-08-19T00:22:59;1014.6;;;21.7;58.4
54439;BME280;40347;53.848;27.498;2022-08-19T00:27:49;1014.7;;;21.6;58.6
54439;BME280;40347;53.848;27.498;2022-08-19T00:32:57;1014.7;;;21.6;58.7
54439;BME280;40347;53.848;27.498;2022-08-19T00:37:57;1014.6;;;21.5;58.8
54439;BME280;40347;53.848;27.498;2022-08-19T00:42:49;1014.7;;;21.5;58.7
54439;BME280;40347;53.848;27.498;2022-08-19T00:47:49;1014.7;;;21.5;58.9
54439;BME280;40347;53.848;27.498;2022-08-19T00:53:07;1014.7;;;21.4;59.4
54439;BME280;40347;53.848;27.498;2022-08-19T00:57:52;1014.7;;;21.3;59.5
54439;BME280;40347;53.848;27.498;2022-08-19T01:02:55;1014.7;;;21.3;59.6
54439;BME280;40347;53.848;27.498;2022-08-19T01:07:49;1014.7;;;21.2;59.8
54439;BME280;40347;53.848;27.498;2022-08-19T01:12:57;1014.6;;;21.2;59.9
54439;BME280;40347;53.848;27.498;2022-08-19T01:18:05;1014.6;;;21.1;60.4
54439;BME280;40347;53.848;27.498;2022-08-19T01:22:54;1014.6;;;21.1;60.9
54439;BME280;40347;53.848;27.498;2022-08-19T01:28:01;1014.6;;;21.1;60.9
54439;BME280;40347;53.848;27.498;2022-08-19T01:32:49;1014.6;;;21.2;60.6
54439;BME280;40347;53.848;27.498;2022-08-19T01:37:51;1014.6;;;21.1;61.3
54439;BME280;40347;53.848;27.498;2022-08-19T01:42:49;1014.6;;;21;61.7
54439;BME280;40347;53.848;27.498;2022-08-19T01:48:07;1014.7;;;20.9;61.9
54439;BME280;40347;53.848;27.498;2022-08-19T01:52:55;1014.7;;;20.8;62.2
54439;BME280;40347;53.848;27.498;2022-08-19T01:58:03;1014.7;;;20.8;62.3
54439;BME280;40347;53.848;27.498;2022-08-19T02:02:49;1014.7;;;20.8;61.8
54439;BME280;40347;53.848;27.498;2022-08-19T02:07:49;1014.7;;;20.7;62.3
54439;BME280;40347;53.848;27.498;2022-08-19T02:12:49;1014.7;;;20.7;62.8
54439;BME280;40347;53.848;27.498;2022-08-19T02:17:49;1014.7;;;20.6;63.1
54439;BME280;40347;53.848;27.498;2022-08-19T02:22:57;1014.8;;;20.6;63.2
54439;BME280;40347;53.848;27.498;2022-08-19T02:28:11;1014.8;;;20.5;63.2
54439;BME280;40347;53.848;27.498;2022-08-19T02:32:57;1014.7;;;20.5;63.2
54439;BME280;40347;53.848;27.498;2022-08-19T02:37:57;1014.8;;;20.5;63.3
54439;BME280;40347;53.848;27.498;2022-08-19T02:43:05;1014.8;;;20.4;63.3
54439;BME280;40347;53.848;27.498;2022-08-19T02:47:55;1014.7;;;20.4;63.6
54439;BME280;40347;53.848;27.498;2022-08-19T02:52:49;1014.7;;;20.4;64.1
54439;BME280;40347;53.848;27.498;2022-08-19T02:57:59;1014.7;;;20.4;64
54439;BME280;40347;53.848;27.498;2022-08-19T03:02:57;1014.8;;;20.5;63.7
54439;BME280;40347;53.848;27.498;2022-08-19T03:07:49;1014.8;;;20.4;64.3
54439;BME280;40347;53.848;27.498;2022-08-19T03:12:49;1014.9;;;20.4;64.7
54439;BME280;40347;53.848;27.498;2022-08-19T03:17:49;1014.9;;;20.3;65
54439;BME280;40347;53.848;27.498;2022-08-19T03:22:57;1015;;;20.4;65.2
54439;BME280;40347;53.848;27.498;2022-08-19T03:27:49;1015;;;20.4;65.4
54439;BME280;40347;53.848;27.498;2022-08-19T03:32:49;1015;;;20.4;65.4
54439;BME280;40347;53.848;27.498;2022-08-19T03:37:49;1015;;;20.4;65.3
54439;BME280;40347;53.848;27.498;2022-08-19T03:42:59;1015;;;20.5;65.5
54439;BME280;40347;53.848;27.498;2022-08-19T03:47:59;1015.1;;;20.5;65.5
54439;BME280;40347;53.848;27.498;2022-08-19T03:52:57;1015.1;;;20.6;65.6
54439;BME280;40347;53.848;27.498;2022-08-19T03:57:57;1015.2;;;20.6;65.4
54439;BME280;40347;53.848;27.498;2022-08-19T04:02:55;1015.2;;;20.7;64.8
54439;BME280;40347;53.848;27.498;2022-08-19T04:08:07;1015.2;;;20.8;64.9
54439;BME280;40347;53.848;27.498;2022-08-19T04:13:05;1015.3;;;20.8;65.1
54439;BME280;40347;53.848;27.498;2022-08-19T04:17:49;1015.3;;;21;64.4
54439;BME280;40347;53.848;27.498;2022-08-19T04:22:56;1015.3;;;21.2;64
54439;BME280;40347;53.848;27.498;2022-08-19T04:27:55;1015.3;;;21.4;63.3
54439;BME280;40347;53.848;27.498;2022-08-19T04:32:59;1015.4;;;21.9;61.9
54439;BME280;40347;53.848;27.498;2022-08-19T04:37:49;1015.5;;;22.2;60.2
54439;BME280;40347;53.848;27.498;2022-08-19T04:43:05;1015.5;;;22.1;60.3
54439;BME280;40347;53.848;27.498;2022-08-19T04:47:59;1015.5;;;22.2;60
54439;BME280;40347;53.848;27.498;2022-08-19T04:52:50;1015.5;;;22.3;59.6
54439;BME280;40347;53.848;27.498;2022-08-19T04:57:59;1015.6;;;22.3;59.5
54439;BME280;40347;53.848;27.498;2022-08-19T05:03:03;1015.6;;;22.5;58.9
54439;BME280;40347;53.848;27.498;2022-08-19T05:07:49;1015.6;;;22.7;58.3
54439;BME280;40347;53.848;27.498;2022-08-19T05:12:57;1015.6;;;22.9;57.5
54439;BME280;40347;53.848;27.498;2022-08-19T05:17:49;1015.6;;;23;57.3
54439;BME280;40347;53.848;27.498;2022-08-19T05:22:49;1015.6;;;23.1;57.1
54439;BME280;40347;53.848;27.498;2022-08-19T05:28:09;1015.6;;;23.5;56.3
54439;BME280;40347;53.848;27.498;2022-08-19T05:32:49;1015.7;;;23.7;55.5
54439;BME280;40347;53.848;27.498;2022-08-19T05:37:55;1015.7;;;23.7;55.4
54439;BME280;40347;53.848;27.498;2022-08-19T05:43:04;1015.7;;;23.7;55.1
54439;BME280;40347;53.848;27.498;2022-08-19T05:47:49;1015.7;;;23.8;55
54439;BME280;40347;53.848;27.498;2022-08-19T05:52:49;1015.6;;;24;54.7
54439;BME280;40347;53.848;27.498;2022-08-19T05:57:57;1015.6;;;24;54.1
54439;BME280;40347;53.848;27.498;2022-08-19T06:02:55;1015.6;;;24.2;53.6
54439;BME280;40347;53.848;27.498;2022-08-19T06:07:49;1015.5;;;24.3;53.4
54439;BME280;40347;53.848;27.498;2022-08-19T06:12:55;1015.5;;;24.3;53.2
54439;BME280;40347;53.848;27.498;2022-08-19T06:18:13;1015.6;;;24.5;52.9
54439;BME280;40347;53.848;27.498;2022-08-19T06:22:59;1015.6;;;24.7;52.6
54439;BME280;40347;53.848;27.498;2022-08-19T06:27:49;1015.6;;;24.6;51.9
54439;BME280;40347;53.848;27.498;2022-08-19T06:32:59;1015.6;;;24.5;51.9
54439;BME280;40347;53.848;27.498;2022-08-19T06:37:49;1015.6;;;24.5;52.1
54439;BME280;40347;53.848;27.498;2022-08-19T06:42:49;1015.5;;;24.3;52.5
54439;BME280;40347;53.848;27.498;2022-08-19T06:47:49;1015.6;;;24.4;52.5
54439;BME280;40347;53.848;27.498;2022-08-19T06:52:49;1015.6;;;24.6;52
54439;BME280;40347;53.848;27.498;2022-08-19T06:57:55;1015.6;;;24.9;51.3
54439;BME280;40347;53.848;27.498;2022-08-19T07:02:49;1015.6;;;25.2;50.7
54439;BME280;40347;53.848;27.498;2022-08-19T07:07:49;1015.7;;;25.4;49.8
54439;BME280;40347;53.848;27.498;2022-08-19T07:12:49;1015.6;;;25.5;49.5
54439;BME280;40347;53.848;27.498;2022-08-19T07:17:49;1015.6;;;25.7;49.2
54439;BME280;40347;53.848;27.498;2022-08-19T07:22:55;1015.6;;;25.9;48.3
54439;BME280;40347;53.848;27.498;2022-08-19T07:27:57;1015.5;;;26;48.2
54439;BME280;40347;53.848;27.498;2022-08-19T07:32:49;1015.5;;;26.1;47.4
54439;BME280;40347;53.848;27.498;2022-08-19T07:37:49;1015.5;;;26.2;47.5
54439;BME280;40347;53.848;27.498;2022-08-19T07:43:11;1015.5;;;26.2;47.1
54439;BME280;40347;53.848;27.498;2022-08-19T07:47:49;1015.6;;;26.4;46.8
54439;BME280;40347;53.848;27.498;2022-08-19T07:53:09;1015.6;;;26.5;46.3
54439;BME280;40347;53.848;27.498;2022-08-19T07:58:07;1015.6;;;26.6;45.7
54439;BME280;40347;53.848;27.498;2022-08-19T08:03:07;1015.6;;;26.6;45.2
54439;BME280;40347;53.848;27.498;2022-08-19T08:08:01;1015.6;;;26.7;44.5
54439;BME280;40347;53.848;27.498;2022-08-19T08:12:55;1015.6;;;26.6;44.2
54439;BME280;40347;53.848;27.498;2022-08-19T08:17:49;1015.5;;;26.7;44.6
54439;BME280;40347;53.848;27.498;2022-08-19T08:22:49;1015.5;;;26.8;43.6
54439;BME280;40347;53.848;27.498;2022-08-19T08:27:57;1015.5;;;26.8;42.7
54439;BME280;40347;53.848;27.498;2022-08-19T08:33:01;1015.5;;;26.9;42.3
54439;BME280;40347;53.848;27.498;2022-08-19T08:37:49;1015.5;;;26.9;42.2
54439;BME280;40347;53.848;27.498;2022-08-19T08:42:53;1015.5;;;27;41.9
54439;BME280;40347;53.848;27.498;2022-08-19T08:48:01;1015.6;;;27.1;42.3
54439;BME280;40347;53.848;27.498;2022-08-19T08:52:50;1015.5;;;27.2;41.6
54439;BME280;40347;53.848;27.498;2022-08-19T08:57:55;1015.5;;;27.2;41.8
54439;BME280;40347;53.848;27.498;2022-08-19T09:02:53;1015.5;;;27.3;41.5
54439;BME280;40347;53.848;27.498;2022-08-19T09:07:57;1015.5;;;27.3;41.3
54439;BME280;40347;53.848;27.498;2022-08-19T09:18:01;1015.4;;;27.4;40.3
54439;BME280;40347;53.848;27.498;2022-08-19T09:22:49;1015.4;;;27.5;39.6
54439;BME280;40347;53.848;27.498;2022-08-19T09:27:49;1015.4;;;27.6;40.5
54439;BME280;40347;53.848;27.498;2022-08-19T09:32:59;1015.3;;;27.6;40
54439;BME280;40347;53.848;27.498;2022-08-19T09:37:49;1015.2;;;27.6;40.8
54439;BME280;40347;53.848;27.498;2022-08-19T09:42:49;1015.2;;;27.7;41.1
54439;BME280;40347;53.848;27.498;2022-08-19T09:47:50;1015.2;;;27.7;40.9
54439;BME280;40347;53.848;27.498;2022-08-19T09:53:01;1015.3;;;27.8;40.5
54439;BME280;40347;53.848;27.498;2022-08-19T09:57:57;1015.3;;;27.8;41
54439;BME280;40347;53.848;27.498;2022-08-19T10:02:49;1015.3;;;27.8;40.7
54439;BME280;40347;53.848;27.498;2022-08-19T10:08:03;1015.2;;;27.9;41.1
54439;BME280;40347;53.848;27.498;2022-08-19T10:12:49;1015.3;;;27.9;41.3
54439;BME280;40347;53.848;27.498;2022-08-19T10:17:59;1015.3;;;27.9;41.5
54439;BME280;40347;53.848;27.498;2022-08-19T10:22:49;1015.3;;;27.9;41.5
54439;BME280;40347;53.848;27.498;2022-08-19T10:27:49;1015.2;;;27.9;41.9
54439;BME280;40347;53.848;27.498;2022-08-19T10:32:49;1015.3;;;27.8;42.2
54439;BME280;40347;53.848;27.498;2022-08-19T10:37:49;1015.3;;;27.9;42.1
54439;BME280;40347;53.848;27.498;2022-08-19T10:43:03;1015.2;;;27.8;42.3
54439;BME280;40347;53.848;27.498;2022-08-19T10:47:58;1015.2;;;27.9;42.2
54439;BME280;40347;53.848;27.498;2022-08-19T10:52:49;1015.1;;;27.9;42.3
54439;BME280;40347;53.848;27.498;2022-08-19T10:57:57;1015.1;;;27.9;42.7
54439;BME280;40347;53.848;27.498;2022-08-19T11:03:05;1015.2;;;27.8;42.6
54439;BME280;40347;53.848;27.498;2022-08-19T11:08:05;1015.3;;;27.9;42.7
54439;BME280;40347;53.848;27.498;2022-08-19T11:12:49;1015.3;;;27.9;42.6
54439;BME280;40347;53.848;27.498;2022-08-19T11:18:02;1015.3;;;27.9;42.7
54439;BME280;40347;53.848;27.498;2022-08-19T11:22:50;1015.3;;;28;42.6
54439;BME280;40347;53.848;27.498;2022-08-19T11:27:55;1015.3;;;28;42.5
54439;BME280;40347;53.848;27.498;2022-08-19T11:32:49;1015.3;;;28.1;42.2
54439;BME280;40347;53.848;27.498;2022-08-19T11:37:49;1015.3;;;28.1;42
54439;BME280;40347;53.848;27.498;2022-08-19T11:42:49;1015.3;;;28.2;41.9
54439;BME280;40347;53.848;27.498;2022-08-19T11:47:59;1015.3;;;28.2;41.3
54439;BME280;40347;53.848;27.498;2022-08-19T11:52:49;1015.2;;;28.2;41.1
54439;BME280;40347;53.848;27.498;2022-08-19T11:57:49;1015.2;;;28.1;40.9
54439;BME280;40347;53.848;27.498;2022-08-19T12:02:56;1015.2;;;28.1;41.1
54439;BME280;40347;53.848;27.498;2022-08-19T12:07:49;1015.2;;;28.2;41.2
54439;BME280;40347;53.848;27.498;2022-08-19T12:12:59;1015.1;;;28.2;41.1
54439;BME280;40347;53.848;27.498;2022-08-19T12:18:05;1015.1;;;28.3;41
54439;BME280;40347;53.848;27.498;2022-08-19T12:22:55;1015.1;;;28.3;41.2
54439;BME280;40347;53.848;27.498;2022-08-19T12:28:09;1015;;;28.4;41.2
54439;BME280;40347;53.848;27.498;2022-08-19T12:32:57;1015.1;;;28.5;41.5
54439;BME280;40347;53.848;27.498;2022-08-19T12:38:05;1015.1;;;28.7;41.3
54439;BME280;40347;53.848;27.498;2022-08-19T12:42:55;1015;;;28.9;41.3
54439;BME280;40347;53.848;27.498;2022-08-19T12:47:49;1015.1;;;28.9;41.2
54439;BME280;40347;53.848;27.498;2022-08-19T12:52:49;1015.1;;;28.9;41.3
54439;BME280;40347;53.848;27.498;2022-08-19T12:57:59;1015.1;;;29.1;41.4
54439;BME280;40347;53.848;27.498;2022-08-19T13:02:59;1015;;;29.2;41.3
54439;BME280;40347;53.848;27.498;2022-08-19T13:07:50;1015;;;29.2;41.4
54439;BME280;40347;53.848;27.498;2022-08-19T13:12:49;1015;;;29;41.7
54439;BME280;40347;53.848;27.498;2022-08-19T13:17:55;1015;;;28.8;42.1
54439;BME280;40347;53.848;27.498;2022-08-19T13:23:03;1014.9;;;28.3;42.9
54439;BME280;40347;53.848;27.498;2022-08-19T13:27:57;1014.9;;;27.8;43.6
54439;BME280;40347;53.848;27.498;2022-08-19T13:32:56;1014.9;;;27.8;43.6
54439;BME280;40347;53.848;27.498;2022-08-19T13:38:05;1014.9;;;28.2;43.4
54439;BME280;40347;53.848;27.498;2022-08-19T13:42:59;1014.9;;;28.4;43.2
54439;BME280;40347;53.848;27.498;2022-08-19T13:48:05;1014.9;;;28.2;43.8
54439;BME280;40347;53.848;27.498;2022-08-19T13:52:49;1014.9;;;27.9;44.4
54439;BME280;40347;53.848;27.498;2022-08-19T13:57:56;1014.9;;;27.8;44.5
54439;BME280;40347;53.848;27.498;2022-08-19T14:03:13;1015;;;27.6;44.4
54439;BME280;40347;53.848;27.498;2022-08-19T14:07:49;1015;;;27.6;44.5
54439;BME280;40347;53.848;27.498;2022-08-19T14:13:05;1015;;;27.6;44.4
54439;BME280;40347;53.848;27.498;2022-08-19T14:17:49;1014.9;;;27.7;44.6
54439;BME280;40347;53.848;27.498;2022-08-19T14:22:55;1014.9;;;27.7;44.4
54439;BME280;40347;53.848;27.498;2022-08-19T14:27:49;1015;;;27.5;44.8
54439;BME280;40347;53.848;27.498;2022-08-19T14:32:49;1015;;;27.4;45.2
54439;BME280;40347;53.848;27.498;2022-08-19T14:38:14;1015;;;27.6;45
54439;BME280;40347;53.848;27.498;2022-08-19T14:42:49;1015;;;27.7;44.9
54439;BME280;40347;53.848;27.498;2022-08-19T14:47:55;1015.1;;;27.4;45.2
54439;BME280;40347;53.848;27.498;2022-08-19T14:53:10;1015.1;;;27.1;45.8
54439;BME280;40347;53.848;27.498;2022-08-19T14:57:49;1015;;;27;45.9
54439;BME280;40347;53.848;27.498;2022-08-19T15:02:49;1015.1;;;27;45.9
54439;BME280;40347;53.848;27.498;2022-08-19T15:07:49;1015;;;27.3;45.6
54439;BME280;40347;53.848;27.498;2022-08-19T15:12:49;1015;;;27.3;45.5
54439;BME280;40347;53.848;27.498;2022-08-19T15:17:55;1015.1;;;27;45.7
54439;BME280;40347;53.848;27.498;2022-08-19T15:22:55;1015.1;;;26.6;46.5
54439;BME280;40347;53.848;27.498;2022-08-19T15:27:59;1015.1;;;26.4;47
54439;BME280;40347;53.848;27.498;2022-08-19T15:32:49;1015.1;;;26.2;47.2
54439;BME280;40347;53.848;27.498;2022-08-19T15:37:55;1015.1;;;26;47.5
54439;BME280;40347;53.848;27.498;2022-08-19T15:42:49;1015.2;;;25.9;47.7
54439;BME280;40347;53.848;27.498;2022-08-19T15:47:49;1015.2;;;25.9;48.2
54439;BME280;40347;53.848;27.498;2022-08-19T15:52:51;1015.3;;;26;48
54439;BME280;40347;53.848;27.498;2022-08-19T15:58:01;1015.3;;;25.9;48.1
54439;BME280;40347;53.848;27.498;2022-08-19T16:02:49;1015.3;;;25.7;48.6
54439;BME280;40347;53.848;27.498;2022-08-19T16:07:49;1015.4;;;25.7;48.6
54439;BME280;40347;53.848;27.498;2022-08-19T16:13:03;1015.5;;;25.5;48.9
54439;BME280;40347;53.848;27.498;2022-08-19T16:17:49;1015.4;;;25.3;49.2
54439;BME280;40347;53.848;27.498;2022-08-19T16:22:49;1015.4;;;25.2;49.8
54439;BME280;40347;53.848;27.498;2022-08-19T16:27:55;1015.4;;;25.1;50.2
54439;BME280;40347;53.848;27.498;2022-08-19T16:32:49;1015.5;;;25;50.7
54439;BME280;40347;53.848;27.498;2022-08-19T16:37:55;1015.6;;;24.9;50.9
54439;BME280;40347;53.848;27.498;2022-08-19T16:42:57;1015.6;;;24.8;51
54439;BME280;40347;53.848;27.498;2022-08-19T16:47:49;1015.7;;;24.7;51.4
54439;BME280;40347;53.848;27.498;2022-08-19T16:52:49;1015.6;;;24.7;51.6
54439;BME280;40347;53.848;27.498;2022-08-19T16:58:01;1015.6;;;24.6;51.7
54439;BME280;40347;53.848;27.498;2022-08-19T17:02:49;1015.6;;;24.5;52.4
54439;BME280;40347;53.848;27.498;2022-08-19T17:08:07;1015.6;;;24.4;52.2
54439;BME280;40347;53.848;27.498;2022-08-19T17:12:49;1015.6;;;24.3;53
54439;BME280;40347;53.848;27.498;2022-08-19T17:18:06;1015.6;;;24.2;53.5
54439;BME280;40347;53.848;27.498;2022-08-19T17:22:49;1015.7;;;24.1;54
54439;BME280;40347;53.848;27.498;2022-08-19T17:27:56;1015.7;;;24;54
54439;BME280;40347;53.848;27.498;2022-08-19T17:32:49;1015.7;;;23.9;54.6
54439;BME280;40347;53.848;27.498;2022-08-19T17:37:49;1015.8;;;23.8;54.6
54439;BME280;40347;53.848;27.498;2022-08-19T17:43:03;1015.8;;;23.7;54.9
54439;BME280;40347;53.848;27.498;2022-08-19T17:47:49;1015.8;;;23.6;55.6
54439;BME280;40347;53.848;27.498;2022-08-19T17:52:49;1015.9;;;23.5;56
54439;BME280;40347;53.848;27.498;2022-08-19T17:57:49;1015.9;;;23.4;56.2
54439;BME280;40347;53.848;27.498;2022-08-19T18:02:58;1015.9;;;23.3;56.7
54439;BME280;40347;53.848;27.498;2022-08-19T18:07:55;1015.9;;;23.3;56.6
54439;BME280;40347;53.848;27.498;2022-08-19T18:12:49;1015.9;;;23.2;57.1
54439;BME280;40347;53.848;27.498;2022-08-19T18:17:55;1016;;;23.1;57
54439;BME280;40347;53.848;27.498;2022-08-19T18:22:49;1016;;;23.1;56.8
54439;BME280;40347;53.848;27.498;2022-08-19T18:28:01;1016;;;23.1;56.8
54439;BME280;40347;53.848;27.498;2022-08-19T18:32:57;1016.1;;;23;57.3
54439;BME280;40347;53.848;27.498;2022-08-19T18:37:56;1016;;;22.9;57.4
54439;BME280;40347;53.848;27.498;2022-08-19T18:42:55;1016;;;22.8;57.8
54439;BME280;40347;53.848;27.498;2022-08-19T18:47:49;1016;;;22.7;58.2
54439;BME280;40347;53.848;27.498;2022-08-19T18:52:59;1015.9;;;22.7;58.3
54439;BME280;40347;53.848;27.498;2022-08-19T18:57:55;1015.8;;;22.7;58.6
54439;BME280;40347;53.848;27.498;2022-08-19T19:02:59;1015.8;;;22.6;58.9
54439;BME280;40347;53.848;27.498;2022-08-19T19:07:49;1015.8;;;22.5;59.2
54439;BME280;40347;53.848;27.498;2022-08-19T19:12:49;1015.8;;;22.5;59.3
54439;BME280;40347;53.848;27.498;2022-08-19T19:17:57;1015.8;;;22.5;59.6
54439;BME280;40347;53.848;27.498;2022-08-19T19:22:49;1015.8;;;22.6;59.4
54439;BME280;40347;53.848;27.498;2022-08-19T19:27:49;1015.8;;;22.6;59.1
54439;BME280;40347;53.848;27.498;2022-08-19T19:32:49;1015.8;;;22.5;59.7
54439;BME280;40347;53.848;27.498;2022-08-19T19:37:49;1015.7;;;22.4;60.1
54439;BME280;40347;53.848;27.498;2022-08-19T19:43:05;1015.7;;;22.3;60.3
54439;BME280;40347;53.848;27.498;2022-08-19T19:47:55;1015.7;;;22.2;60.9
54439;BME280;40347;53.848;27.498;2022-08-19T19:52:49;1015.6;;;22.1;61.2
54439;BME280;40347;53.848;27.498;2022-08-19T19:57:55;1015.6;;;22.1;61.2
54439;BME280;40347;53.848;27.498;2022-08-19T20:02:50;1015.6;;;22;61.5
54439;BME280;40347;53.848;27.498;2022-08-19T20:08:01;1015.6;;;21.9;61.8
54439;BME280;40347;53.848;27.498;2022-08-19T20:12:49;1015.6;;;21.9;62.4
54439;BME280;40347;53.848;27.498;2022-08-19T20:17:55;1015.7;;;21.8;62.4
54439;BME280;40347;53.848;27.498;2022-08-19T20:22:49;1015.7;;;22;62.2
54439;BME280;40347;53.848;27.498;2022-08-19T20:27:49;1015.7;;;22.2;61.7
54439;BME280;40347;53.848;27.498;2022-08-19T20:32:49;1015.7;;;22.2;61.3
54439;BME280;40347;53.848;27.498;2022-08-19T20:37:59;1015.7;;;22.1;61.2
54439;BME280;40347;53.848;27.498;2022-08-19T20:42:49;1015.8;;;22;61.4
54439;BME280;40347;53.848;27.498;2022-08-19T20:47:55;1015.7;;;21.9;61.4
54439;BME280;40347;53.848;27.498;2022-08-19T20:52:49;1015.8;;;21.8;61.6
54439;BME280;40347;53.848;27.498;2022-08-19T20:57:49;1015.8;;;21.8;61.7
54439;BME280;40347;53.848;27.498;2022-08-19T21:02:57;1015.8;;;21.6;61.7
54439;BME280;40347;53.848;27.498;2022-08-19T21:07:55;1015.8;;;21.5;61.8
54439;BME280;40347;53.848;27.498;2022-08-19T21:12:49;1015.7;;;21.4;61.7
54439;BME280;40347;53.848;27.498;2022-08-19T21:17:59;1015.7;;;21.3;61.7
54439;BME280;40347;53.848;27.498;2022-08-19T21:22:49;1015.7;;;21.3;61.4
54439;BME280;40347;53.848;27.498;2022-08-19T21:28:07;1015.6;;;21.2;61.4
54439;BME280;40347;53.848;27.498;2022-08-19T21:33:02;1015.5;;;21.1;61.2
54439;BME280;40347;53.848;27.498;2022-08-19T21:37:55;1015.5;;;21;61.2
54439;BME280;40347;53.848;27.498;2022-08-19T21:42:49;1015.4;;;21;61.5
54439;BME280;40347;53.848;27.498;2022-08-19T21:47:49;1015.4;;;20.9;61.3
54439;BME280;40347;53.848;27.498;2022-08-19T21:53:01;1015.3;;;20.8;61.3
54439;BME280;40347;53.848;27.498;2022-08-19T21:57:53;1015.3;;;20.8;61.3
54439;BME280;40347;53.848;27.498;2022-08-19T22:02:49;1015.3;;;20.7;61.3
54439;BME280;40347;53.848;27.498;2022-08-19T22:07:56;1015.3;;;20.7;61.4
54439;BME280;40347;53.848;27.498;2022-08-19T22:12:49;1015.3;;;20.7;61.5
54439;BME280;40347;53.848;27.498;2022-08-19T22:17:49;1015.3;;;20.6;61.8
54439;BME280;40347;53.848;27.498;2022-08-19T22:22:58;1015.3;;;20.6;61.7
54439;BME280;40347;53.848;27.498;2022-08-19T22:27:58;1015.3;;;20.6;61.6
54439;BME280;40347;53.848;27.498;2022-08-19T22:33:19;1015.2;;;20.5;61.9
54439;BME280;40347;53.848;27.498;2022-08-19T22:37:57;1015.2;;;20.4;62.3
54439;BME280;40347;53.848;27.498;2022-08-19T22:42:55;1015.1;;;20.4;62.3
54439;BME280;40347;53.848;27.498;2022-08-19T22:47:49;1015.1;;;20.4;62.6
54439;BME280;40347;53.848;27.498;2022-08-19T22:52:54;1015.1;;;20.3;62.8
54439;BME280;40347;53.848;27.498;2022-08-19T22:57:59;1015.2;;;20.3;62.8
54439;BME280;40347;53.848;27.498;2022-08-19T23:02:49;1015.2;;;20.2;63.3
54439;BME280;40347;53.848;27.498;2022-08-19T23:07:49;1015.1;;;20.2;63.6
54439;BME280;40347;53.848;27.498;2022-08-19T23:12:56;1015.1;;;20.2;63.7
54439;BME280;40347;53.848;27.498;2022-08-19T23:17:51;1015.2;;;20.1;64
54439;BME280;40347;53.848;27.498;2022-08-19T23:22:55;1015.2;;;20;64
54439;BME280;40347;53.848;27.498;2022-08-19T23:27:57;1015.2;;;19.9;64.3
54439;BME280;40347;53.848;27.498;2022-08-19T23:32:49;1015.2;;;19.9;64.6
54439;BME280;40347;53.848;27.498;2022-08-19T23:37:49;1015.2;;;19.8;65.1
54439;BME280;40347;53.848;27.498;2022-08-19T23:42:49;1015.2;;;19.7;65.2
54439;BME280;40347;53.848;27.498;2022-08-19T23:47:53;1015.1;;;19.7;65.3
54439;BME280;40347;53.848;27.498;2022-08-19T23:52:51;1015.1;;;19.6;65.8
54439;BME280;40347;53.848;27.498;2022-08-19T23:58:00;1015.1;;;19.5;66
